sensor_id;sensor_type;location;lat;lon;timestamp;temperature;humidity
74513;DHT22;62992;52.052;8.550;2023-02-26T00:00:24;-0.40;99.90
74513;DHT22;62992;52.052;8.550;2023-02-26T00:03:08;-0.40;99.90
74513;DHT22;62992;52.052;8.550;2023-02-26T00:05:52;-0.40;99.90
74513;DHT22;62992;52.052;8.550;2023-02-26T00:08:36;-0.40;99.90
74513;DHT22;62992;52.052;8.550;2023-02-26T00:11:21;-0.40;99.90
74513;DHT22;62992;52.052;8.550;2023-02-26T00:14:07;-0.40;99.90
74513;DHT22;62992;52.052;8.550;2023-02-26T00:19:51;-0.50;99.90
74513;DHT22;62992;52.052;8.550;2023-02-26T00:22:36;-0.50;99.90
74513;DHT22;62992;52.052;8.550;2023-02-26T00:25:20;-0.50;99.90
74513;DHT22;62992;52.052;8.550;2023-02-26T00:28:05;-0.50;99.90
74513;DHT22;62992;52.052;8.550;2023-02-26T00:30:50;-0.50;99.90
74513;DHT22;62992;52.052;8.550;2023-02-26T00:33:35;-0.50;99.90
74513;DHT22;62992;52.052;8.550;2023-02-26T00:42:24;-0.40;99.90
74513;DHT22;62992;52.052;8.550;2023-02-26T00:45:10;-0.40;99.90
74513;DHT22;62992;52.052;8.550;2023-02-26T00:47:59;-0.40;99.90
74513;DHT22;62992;52.052;8.550;2023-02-26T00:50:58;-0.30;99.90
74513;DHT22;62992;52.052;8.550;2023-02-26T00:56:52;-0.30;99.90
74513;DHT22;62992;52.052;8.550;2023-02-26T00:59:36;-0.30;99.90
74513;DHT22;62992;52.052;8.550;2023-02-26T01:02:20;-0.30;99.90
74513;DHT22;62992;52.052;8.550;2023-02-26T01:05:05;-0.30;99.90
74513;DHT22;62992;52.052;8.550;2023-02-26T01:10:51;-0.40;99.90
74513;DHT22;62992;52.052;8.550;2023-02-26T01:13:35;-0.40;99.90
74513;DHT22;62992;52.052;8.550;2023-02-26T01:16:22;-0.40;99.90
74513;DHT22;62992;52.052;8.550;2023-02-26T01:19:14;-0.30;99.90
74513;DHT22;62992;52.052;8.550;2023-02-26T01:22:07;-0.40;99.90
74513;DHT22;62992;52.052;8.550;2023-02-26T01:25:02;-0.30;99.90
74513;DHT22;62992;52.052;8.550;2023-02-26T01:27:47;-0.30;99.90
74513;DHT22;62992;52.052;8.550;2023-02-26T01:30:31;-0.30;99.90
74513;DHT22;62992;52.052;8.550;2023-02-26T01:33:43;-0.30;99.90
74513;DHT22;62992;52.052;8.550;2023-02-26T01:36:32;-0.20;99.90
74513;DHT22;62992;52.052;8.550;2023-02-26T01:42:18;-0.20;99.90
74513;DHT22;62992;52.052;8.550;2023-02-26T01:45:16;-0.20;99.90
74513;DHT22;62992;52.052;8.550;2023-02-26T01:48:06;-0.20;99.90
74513;DHT22;62992;52.052;8.550;2023-02-26T01:50:54;-0.30;99.90
74513;DHT22;62992;52.052;8.550;2023-02-26T01:53:38;-0.30;99.90
74513;DHT22;62992;52.052;8.550;2023-02-26T01:56:22;-0.40;99.90
74513;DHT22;62992;52.052;8.550;2023-02-26T01:59:08;-0.40;99.90
74513;DHT22;62992;52.052;8.550;2023-02-26T02:01:55;-0.50;99.90
74513;DHT22;62992;52.052;8.550;2023-02-26T02:04:41;-0.40;99.90
74513;DHT22;62992;52.052;8.550;2023-02-26T02:07:26;-0.50;99.90
74513;DHT22;62992;52.052;8.550;2023-02-26T02:10:12;-0.50;99.90
74513;DHT22;62992;52.052;8.550;2023-02-26T02:13:13;-0.60;99.90
74513;DHT22;62992;52.052;8.550;2023-02-26T02:37:19;-0.80;99.90
74513;DHT22;62992;52.052;8.550;2023-02-26T02:40:13;-0.80;99.90
74513;DHT22;62992;52.052;8.550;2023-02-26T02:43:03;-0.80;99.90
74513;DHT22;62992;52.052;8.550;2023-02-26T02:45:55;-0.80;99.90
74513;DHT22;62992;52.052;8.550;2023-02-26T02:48:48;-0.90;99.90
74513;DHT22;62992;52.052;8.550;2023-02-26T02:51:38;-0.90;99.90
74513;DHT22;62992;52.052;8.550;2023-02-26T02:54:29;-0.90;99.90
74513;DHT22;62992;52.052;8.550;2023-02-26T02:57:17;-0.90;99.90
74513;DHT22;62992;52.052;8.550;2023-02-26T03:00:07;-0.80;99.90
74513;DHT22;62992;52.052;8.550;2023-02-26T03:06:18;-0.90;99.90
74513;DHT22;62992;52.052;8.550;2023-02-26T03:09:04;-0.80;99.90
74513;DHT22;62992;52.052;8.550;2023-02-26T03:11:48;-0.80;99.90
74513;DHT22;62992;52.052;8.550;2023-02-26T03:14:33;-0.80;99.90
74513;DHT22;62992;52.052;8.550;2023-02-26T03:17:28;-0.80;99.90
74513;DHT22;62992;52.052;8.550;2023-02-26T03:20:26;-0.80;99.90
74513;DHT22;62992;52.052;8.550;2023-02-26T03:23:21;-0.80;99.90
74513;DHT22;62992;52.052;8.550;2023-02-26T03:26:12;-0.90;99.90
74513;DHT22;62992;52.052;8.550;2023-02-26T03:29:04;-0.90;99.90
74513;DHT22;62992;52.052;8.550;2023-02-26T03:31:54;-0.90;99.90
74513;DHT22;62992;52.052;8.550;2023-02-26T03:34:45;-0.90;99.90
74513;DHT22;62992;52.052;8.550;2023-02-26T03:37:34;-0.90;99.90
74513;DHT22;62992;52.052;8.550;2023-02-26T03:40:40;-1.00;99.90
74513;DHT22;62992;52.052;8.550;2023-02-26T03:43:50;-1.00;99.90
74513;DHT22;62992;52.052;8.550;2023-02-26T03:46:44;-1.00;99.90
74513;DHT22;62992;52.052;8.550;2023-02-26T03:49:35;-1.10;99.90
74513;DHT22;62992;52.052;8.550;2023-02-26T03:52:26;-1.10;99.90
74513;DHT22;62992;52.052;8.550;2023-02-26T03:55:27;-1.10;99.90
74513;DHT22;62992;52.052;8.550;2023-02-26T03:58:11;-1.20;99.90
74513;DHT22;62992;52.052;8.550;2023-02-26T04:01:05;-1.20;99.90
74513;DHT22;62992;52.052;8.550;2023-02-26T04:04:01;-1.20;99.90
74513;DHT22;62992;52.052;8.550;2023-02-26T04:06:47;-1.20;99.90
74513;DHT22;62992;52.052;8.550;2023-02-26T04:09:31;-1.20;99.90
74513;DHT22;62992;52.052;8.550;2023-02-26T04:12:23;-1.20;99.90
74513;DHT22;62992;52.052;8.550;2023-02-26T04:15:08;-1.20;99.90
74513;DHT22;62992;52.052;8.550;2023-02-26T04:17:52;-1.20;99.90
74513;DHT22;62992;52.052;8.550;2023-02-26T04:20:36;-1.20;99.90
74513;DHT22;62992;52.052;8.550;2023-02-26T04:23:20;-1.20;99.90
74513;DHT22;62992;52.052;8.550;2023-02-26T04:26:04;-1.20;99.90
74513;DHT22;62992;52.052;8.550;2023-02-26T04:28:48;-1.30;99.90
74513;DHT22;62992;52.052;8.550;2023-02-26T04:31:32;-1.30;99.90
74513;DHT22;62992;52.052;8.550;2023-02-26T04:34:16;-1.30;99.90
74513;DHT22;62992;52.052;8.550;2023-02-26T04:37:00;-1.30;99.90
74513;DHT22;62992;52.052;8.550;2023-02-26T04:39:44;-1.30;99.90
74513;DHT22;62992;52.052;8.550;2023-02-26T04:42:28;-1.30;99.90
74513;DHT22;62992;52.052;8.550;2023-02-26T04:45:12;-1.30;99.90
74513;DHT22;62992;52.052;8.550;2023-02-26T04:47:57;-1.30;99.90
74513;DHT22;62992;52.052;8.550;2023-02-26T04:50:41;-1.30;99.90
74513;DHT22;62992;52.052;8.550;2023-02-26T04:53:25;-1.20;99.90
74513;DHT22;62992;52.052;8.550;2023-02-26T04:56:09;-1.20;99.90
74513;DHT22;62992;52.052;8.550;2023-02-26T04:58:54;-1.10;99.90
74513;DHT22;62992;52.052;8.550;2023-02-26T05:01:38;-1.10;99.90
74513;DHT22;62992;52.052;8.550;2023-02-26T05:04:22;-1.10;99.90
74513;DHT22;62992;52.052;8.550;2023-02-26T05:07:06;-1.10;99.90
74513;DHT22;62992;52.052;8.550;2023-02-26T05:09:49;-1.10;99.90
74513;DHT22;62992;52.052;8.550;2023-02-26T05:12:33;-1.00;99.90
74513;DHT22;62992;52.052;8.550;2023-02-26T05:15:18;-1.10;99.90
74513;DHT22;62992;52.052;8.550;2023-02-26T05:18:02;-1.10;99.90
74513;DHT22;62992;52.052;8.550;2023-02-26T05:20:52;-1.00;99.90
74513;DHT22;62992;52.052;8.550;2023-02-26T05:23:36;-1.00;99.90
74513;DHT22;62992;52.052;8.550;2023-02-26T05:26:20;-1.00;99.90
74513;DHT22;62992;52.052;8.550;2023-02-26T05:29:04;-0.90;99.90
74513;DHT22;62992;52.052;8.550;2023-02-26T05:31:49;-1.00;99.90
74513;DHT22;62992;52.052;8.550;2023-02-26T05:34:33;-1.00;99.90
74513;DHT22;62992;52.052;8.550;2023-02-26T05:37:18;-0.90;99.90
74513;DHT22;62992;52.052;8.550;2023-02-26T05:40:06;-1.00;99.90
74513;DHT22;62992;52.052;8.550;2023-02-26T05:42:53;-1.00;99.90
74513;DHT22;62992;52.052;8.550;2023-02-26T05:45:37;-1.00;99.90
74513;DHT22;62992;52.052;8.550;2023-02-26T05:48:22;-1.00;99.90
74513;DHT22;62992;52.052;8.550;2023-02-26T05:51:06;-1.00;99.90
74513;DHT22;62992;52.052;8.550;2023-02-26T05:53:50;-1.10;99.90
74513;DHT22;62992;52.052;8.550;2023-02-26T05:56:35;-1.10;99.90
74513;DHT22;62992;52.052;8.550;2023-02-26T05:59:19;-1.10;99.90
74513;DHT22;62992;52.052;8.550;2023-02-26T06:02:03;-1.20;99.90
74513;DHT22;62992;52.052;8.550;2023-02-26T06:04:47;-1.20;99.90
74513;DHT22;62992;52.052;8.550;2023-02-26T06:07:31;-1.30;99.90
74513;DHT22;62992;52.052;8.550;2023-02-26T06:10:16;-1.30;99.90
74513;DHT22;62992;52.052;8.550;2023-02-26T06:13:00;-1.30;99.90
74513;DHT22;62992;52.052;8.550;2023-02-26T06:15:44;-1.30;99.90
74513;DHT22;62992;52.052;8.550;2023-02-26T06:18:28;-1.30;99.90
74513;DHT22;62992;52.052;8.550;2023-02-26T06:21:12;-1.30;99.90
74513;DHT22;62992;52.052;8.550;2023-02-26T06:23:57;-1.30;99.90
74513;DHT22;62992;52.052;8.550;2023-02-26T06:26:41;-1.30;99.90
74513;DHT22;62992;52.052;8.550;2023-02-26T06:29:25;-1.30;99.90
74513;DHT22;62992;52.052;8.550;2023-02-26T06:32:09;-1.30;99.90
74513;DHT22;62992;52.052;8.550;2023-02-26T06:34:53;-1.30;99.90
74513;DHT22;62992;52.052;8.550;2023-02-26T06:37:37;-1.40;99.90
74513;DHT22;62992;52.052;8.550;2023-02-26T06:40:21;-1.40;99.90
74513;DHT22;62992;52.052;8.550;2023-02-26T06:43:06;-1.40;99.90
74513;DHT22;62992;52.052;8.550;2023-02-26T06:45:50;-1.40;99.90
74513;DHT22;62992;52.052;8.550;2023-02-26T06:48:34;-1.40;99.90
74513;DHT22;62992;52.052;8.550;2023-02-26T06:51:18;-1.40;99.90
74513;DHT22;62992;52.052;8.550;2023-02-26T06:54:03;-1.40;99.90
74513;DHT22;62992;52.052;8.550;2023-02-26T06:56:48;-1.40;99.90
74513;DHT22;62992;52.052;8.550;2023-02-26T06:59:31;-1.40;99.90
74513;DHT22;62992;52.052;8.550;2023-02-26T07:02:18;-1.40;99.90
74513;DHT22;62992;52.052;8.550;2023-02-26T07:05:02;-1.40;99.90
74513;DHT22;62992;52.052;8.550;2023-02-26T07:07:46;-1.40;99.90
74513;DHT22;62992;52.052;8.550;2023-02-26T07:10:35;-1.30;99.90
74513;DHT22;62992;52.052;8.550;2023-02-26T07:13:19;-1.30;99.90
74513;DHT22;62992;52.052;8.550;2023-02-26T07:16:04;-1.20;99.90
74513;DHT22;62992;52.052;8.550;2023-02-26T07:18:50;-1.20;99.90
74513;DHT22;62992;52.052;8.550;2023-02-26T07:21:34;-1.10;99.90
74513;DHT22;62992;52.052;8.550;2023-02-26T07:24:18;-1.10;99.90
74513;DHT22;62992;52.052;8.550;2023-02-26T07:27:02;-1.00;99.90
74513;DHT22;62992;52.052;8.550;2023-02-26T07:29:46;-1.00;99.90
74513;DHT22;62992;52.052;8.550;2023-02-26T07:32:30;-0.90;99.90
74513;DHT22;62992;52.052;8.550;2023-02-26T07:35:15;-0.80;99.90
74513;DHT22;62992;52.052;8.550;2023-02-26T07:37:59;-0.70;99.90
74513;DHT22;62992;52.052;8.550;2023-02-26T07:40:43;-0.50;99.90
74513;DHT22;62992;52.052;8.550;2023-02-26T07:43:27;-0.30;99.90
74513;DHT22;62992;52.052;8.550;2023-02-26T07:46:11;0.10;99.90
74513;DHT22;62992;52.052;8.550;2023-02-26T07:48:56;1.00;99.90
74513;DHT22;62992;52.052;8.550;2023-02-26T07:51:40;3.80;99.90
74513;DHT22;62992;52.052;8.550;2023-02-26T07:54:28;6.90;99.90
74513;DHT22;62992;52.052;8.550;2023-02-26T07:57:12;7.70;99.90
74513;DHT22;62992;52.052;8.550;2023-02-26T07:59:56;6.70;99.90
74513;DHT22;62992;52.052;8.550;2023-02-26T08:02:40;6.10;99.90
74513;DHT22;62992;52.052;8.550;2023-02-26T08:05:24;7.40;99.90
74513;DHT22;62992;52.052;8.550;2023-02-26T08:08:08;8.80;99.90
74513;DHT22;62992;52.052;8.550;2023-02-26T08:10:52;11.10;96.10
74513;DHT22;62992;52.052;8.550;2023-02-26T08:13:36;11.40;93.80
74513;DHT22;62992;52.052;8.550;2023-02-26T08:16:21;12.20;92.20
74513;DHT22;62992;52.052;8.550;2023-02-26T08:19:04;13.40;90.00
74513;DHT22;62992;52.052;8.550;2023-02-26T08:21:49;12.50;89.60
74513;DHT22;62992;52.052;8.550;2023-02-26T08:24:33;13.00;88.80
74513;DHT22;62992;52.052;8.550;2023-02-26T08:27:17;12.70;89.00
74513;DHT22;62992;52.052;8.550;2023-02-26T08:30:02;13.30;86.00
74513;DHT22;62992;52.052;8.550;2023-02-26T08:32:46;13.40;84.60
74513;DHT22;62992;52.052;8.550;2023-02-26T08:35:32;12.80;85.40
74513;DHT22;62992;52.052;8.550;2023-02-26T08:38:17;10.90;88.70
74513;DHT22;62992;52.052;8.550;2023-02-26T08:41:01;9.60;92.00
74513;DHT22;62992;52.052;8.550;2023-02-26T08:43:45;10.70;90.50
74513;DHT22;62992;52.052;8.550;2023-02-26T08:46:29;12.20;88.30
74513;DHT22;62992;52.052;8.550;2023-02-26T08:49:13;11.90;87.00
74513;DHT22;62992;52.052;8.550;2023-02-26T08:51:57;11.60;88.90
74513;DHT22;62992;52.052;8.550;2023-02-26T08:54:41;8.80;91.50
74513;DHT22;62992;52.052;8.550;2023-02-26T08:57:25;8.70;93.10
74513;DHT22;62992;52.052;8.550;2023-02-26T09:00:10;9.10;92.70
74513;DHT22;62992;52.052;8.550;2023-02-26T09:02:54;8.40;93.20
74513;DHT22;62992;52.052;8.550;2023-02-26T09:05:39;7.90;94.20
74513;DHT22;62992;52.052;8.550;2023-02-26T09:08:24;9.00;93.00
74513;DHT22;62992;52.052;8.550;2023-02-26T09:11:08;8.20;93.90
74513;DHT22;62992;52.052;8.550;2023-02-26T09:13:53;9.20;92.90
74513;DHT22;62992;52.052;8.550;2023-02-26T09:16:37;10.70;90.50
74513;DHT22;62992;52.052;8.550;2023-02-26T09:19:21;9.10;92.20
74513;DHT22;62992;52.052;8.550;2023-02-26T09:22:06;8.30;92.80
74513;DHT22;62992;52.052;8.550;2023-02-26T09:24:50;8.10;94.00
74513;DHT22;62992;52.052;8.550;2023-02-26T09:27:34;9.00;93.20
74513;DHT22;62992;52.052;8.550;2023-02-26T09:30:19;8.90;92.60
74513;DHT22;62992;52.052;8.550;2023-02-26T09:33:03;8.60;92.20
74513;DHT22;62992;52.052;8.550;2023-02-26T09:35:51;7.90;92.80
74513;DHT22;62992;52.052;8.550;2023-02-26T09:38:35;8.40;92.10
74513;DHT22;62992;52.052;8.550;2023-02-26T09:41:24;7.30;92.90
74513;DHT22;62992;52.052;8.550;2023-02-26T09:55:55;6.70;96.40
74513;DHT22;62992;52.052;8.550;2023-02-26T09:58:42;7.10;95.00
74513;DHT22;62992;52.052;8.550;2023-02-26T10:01:47;7.10;94.70
74513;DHT22;62992;52.052;8.550;2023-02-26T10:05:09;7.40;94.80
74513;DHT22;62992;52.052;8.550;2023-02-26T10:07:58;6.90;94.50
74513;DHT22;62992;52.052;8.550;2023-02-26T10:13:48;8.40;91.70
74513;DHT22;62992;52.052;8.550;2023-02-26T10:16:38;8.00;92.30
74513;DHT22;62992;52.052;8.550;2023-02-26T10:19:31;8.40;91.20
74513;DHT22;62992;52.052;8.550;2023-02-26T10:22:31;7.10;91.90
74513;DHT22;62992;52.052;8.550;2023-02-26T10:25:23;7.00;93.20
74513;DHT22;62992;52.052;8.550;2023-02-26T10:31:04;7.50;91.80
74513;DHT22;62992;52.052;8.550;2023-02-26T10:40:41;4.30;96.20
74513;DHT22;62992;52.052;8.550;2023-02-26T10:43:38;6.30;94.30
74513;DHT22;62992;52.052;8.550;2023-02-26T10:52:29;6.70;93.50
74513;DHT22;62992;52.052;8.550;2023-02-26T10:55:36;4.90;95.10
74513;DHT22;62992;52.052;8.550;2023-02-26T10:58:23;5.40;94.50
74513;DHT22;62992;52.052;8.550;2023-02-26T11:01:21;5.80;94.80
74513;DHT22;62992;52.052;8.550;2023-02-26T11:04:08;6.80;92.70
74513;DHT22;62992;52.052;8.550;2023-02-26T11:06:56;6.30;91.70
74513;DHT22;62992;52.052;8.550;2023-02-26T11:09:44;5.70;94.00
74513;DHT22;62992;52.052;8.550;2023-02-26T11:12:29;7.00;91.60
74513;DHT22;62992;52.052;8.550;2023-02-26T11:15:18;6.70;91.70
74513;DHT22;62992;52.052;8.550;2023-02-26T11:18:02;6.70;92.20
74513;DHT22;62992;52.052;8.550;2023-02-26T11:20:48;7.20;92.30
74513;DHT22;62992;52.052;8.550;2023-02-26T11:23:33;7.30;92.40
74513;DHT22;62992;52.052;8.550;2023-02-26T11:26:19;7.30;92.30
74513;DHT22;62992;52.052;8.550;2023-02-26T11:29:20;7.20;91.80
74513;DHT22;62992;52.052;8.550;2023-02-26T11:32:09;6.80;92.30
74513;DHT22;62992;52.052;8.550;2023-02-26T11:34:58;7.20;91.90
74513;DHT22;62992;52.052;8.550;2023-02-26T11:37:47;6.80;92.90
74513;DHT22;62992;52.052;8.550;2023-02-26T11:40:37;6.40;93.20
74513;DHT22;62992;52.052;8.550;2023-02-26T11:43:24;6.70;93.90
74513;DHT22;62992;52.052;8.550;2023-02-26T11:46:11;6.70;93.00
74513;DHT22;62992;52.052;8.550;2023-02-26T11:48:58;5.60;93.80
74513;DHT22;62992;52.052;8.550;2023-02-26T11:51:47;4.90;95.60
74513;DHT22;62992;52.052;8.550;2023-02-26T11:54:34;4.50;95.70
74513;DHT22;62992;52.052;8.550;2023-02-26T11:57:25;5.20;95.30
74513;DHT22;62992;52.052;8.550;2023-02-26T12:00:39;4.70;95.80
74513;DHT22;62992;52.052;8.550;2023-02-26T12:03:26;5.00;95.90
74513;DHT22;62992;52.052;8.550;2023-02-26T12:06:19;4.30;96.90
74513;DHT22;62992;52.052;8.550;2023-02-26T12:09:10;4.00;97.80
74513;DHT22;62992;52.052;8.550;2023-02-26T12:24:59;3.90;99.90
74513;DHT22;62992;52.052;8.550;2023-02-26T12:43:35;4.00;99.00
74513;DHT22;62992;52.052;8.550;2023-02-26T12:55:10;3.60;98.50
74513;DHT22;62992;52.052;8.550;2023-02-26T13:16:20;3.90;98.60
74513;DHT22;62992;52.052;8.550;2023-02-26T13:21:59;4.20;98.60
74513;DHT22;62992;52.052;8.550;2023-02-26T13:24:59;4.10;97.80
74513;DHT22;62992;52.052;8.550;2023-02-26T13:27:44;4.40;98.50
74513;DHT22;62992;52.052;8.550;2023-02-26T13:30:39;4.10;97.90
74513;DHT22;62992;52.052;8.550;2023-02-26T13:33:29;3.80;98.40
74513;DHT22;62992;52.052;8.550;2023-02-26T13:36:14;3.60;98.70
74513;DHT22;62992;52.052;8.550;2023-02-26T13:39:07;3.60;98.80
74513;DHT22;62992;52.052;8.550;2023-02-26T13:48:09;4.20;98.40
74513;DHT22;62992;52.052;8.550;2023-02-26T13:51:25;4.40;98.40
74513;DHT22;62992;52.052;8.550;2023-02-26T14:00:21;4.00;99.00
74513;DHT22;62992;52.052;8.550;2023-02-26T14:03:12;3.80;99.30
74513;DHT22;62992;52.052;8.550;2023-02-26T14:06:38;3.90;99.60
74513;DHT22;62992;52.052;8.550;2023-02-26T14:18:05;3.90;97.90
74513;DHT22;62992;52.052;8.550;2023-02-26T14:20:50;4.10;98.30
74513;DHT22;62992;52.052;8.550;2023-02-26T14:23:35;4.20;98.60
74513;DHT22;62992;52.052;8.550;2023-02-26T14:26:21;4.10;98.80
74513;DHT22;62992;52.052;8.550;2023-02-26T14:32:03;4.10;98.00
74513;DHT22;62992;52.052;8.550;2023-02-26T14:34:52;3.90;97.60
74513;DHT22;62992;52.052;8.550;2023-02-26T14:37:38;3.80;98.00
74513;DHT22;62992;52.052;8.550;2023-02-26T14:40:24;3.80;97.90
74513;DHT22;62992;52.052;8.550;2023-02-26T14:43:35;3.90;98.10
74513;DHT22;62992;52.052;8.550;2023-02-26T14:46:19;4.00;98.20
74513;DHT22;62992;52.052;8.550;2023-02-26T14:49:16;3.90;97.10
74513;DHT22;62992;52.052;8.550;2023-02-26T14:58:16;4.00;96.90
74513;DHT22;62992;52.052;8.550;2023-02-26T15:01:25;3.90;97.10
74513;DHT22;62992;52.052;8.550;2023-02-26T15:19:48;4.10;96.80
74513;DHT22;62992;52.052;8.550;2023-02-26T15:23:26;4.00;97.60
74513;DHT22;62992;52.052;8.550;2023-02-26T15:25:45;3.90;97.00
74513;DHT22;62992;52.052;8.550;2023-02-26T15:28:33;3.80;97.30
74513;DHT22;62992;52.052;8.550;2023-02-26T15:31:30;3.80;96.90
74513;DHT22;62992;52.052;8.550;2023-02-26T15:34:15;3.80;96.90
74513;DHT22;62992;52.052;8.550;2023-02-26T15:37:00;3.80;97.20
74513;DHT22;62992;52.052;8.550;2023-02-26T15:39:48;3.80;96.90
74513;DHT22;62992;52.052;8.550;2023-02-26T15:42:40;3.60;96.60
74513;DHT22;62992;52.052;8.550;2023-02-26T15:45:46;3.60;97.70
74513;DHT22;62992;52.052;8.550;2023-02-26T15:48:33;3.70;98.40
74513;DHT22;62992;52.052;8.550;2023-02-26T15:51:20;3.60;99.00
74513;DHT22;62992;52.052;8.550;2023-02-26T15:54:05;3.60;99.60
74513;DHT22;62992;52.052;8.550;2023-02-26T15:56:50;3.60;99.80
74513;DHT22;62992;52.052;8.550;2023-02-26T15:59:38;3.60;99.90
74513;DHT22;62992;52.052;8.550;2023-02-26T16:02:28;3.50;99.90
74513;DHT22;62992;52.052;8.550;2023-02-26T16:05:13;3.50;99.90
74513;DHT22;62992;52.052;8.550;2023-02-26T16:07:57;3.50;99.90
74513;DHT22;62992;52.052;8.550;2023-02-26T16:10:42;3.40;99.90
74513;DHT22;62992;52.052;8.550;2023-02-26T16:13:30;3.40;99.90
74513;DHT22;62992;52.052;8.550;2023-02-26T16:16:20;3.40;99.90
74513;DHT22;62992;52.052;8.550;2023-02-26T16:19:05;3.40;99.90
74513;DHT22;62992;52.052;8.550;2023-02-26T16:21:51;3.40;99.90
74513;DHT22;62992;52.052;8.550;2023-02-26T16:24:36;3.30;99.90
74513;DHT22;62992;52.052;8.550;2023-02-26T16:27:20;3.20;99.90
74513;DHT22;62992;52.052;8.550;2023-02-26T16:30:19;3.20;99.90
74513;DHT22;62992;52.052;8.550;2023-02-26T16:33:11;3.10;99.90
74513;DHT22;62992;52.052;8.550;2023-02-26T16:36:13;3.00;99.90
74513;DHT22;62992;52.052;8.550;2023-02-26T16:42:15;3.00;99.90
74513;DHT22;62992;52.052;8.550;2023-02-26T16:48:04;2.90;99.90
74513;DHT22;62992;52.052;8.550;2023-02-26T16:50:59;2.90;99.90
74513;DHT22;62992;52.052;8.550;2023-02-26T16:53:47;2.90;99.90
74513;DHT22;62992;52.052;8.550;2023-02-26T16:56:39;2.90;99.90
74513;DHT22;62992;52.052;8.550;2023-02-26T16:59:28;2.90;99.90
74513;DHT22;62992;52.052;8.550;2023-02-26T17:02:20;2.90;99.90
74513;DHT22;62992;52.052;8.550;2023-02-26T17:05:27;2.90;99.90
74513;DHT22;62992;52.052;8.550;2023-02-26T17:11:08;2.90;99.90
74513;DHT22;62992;52.052;8.550;2023-02-26T17:14:01;2.90;99.90
74513;DHT22;62992;52.052;8.550;2023-02-26T17:16:47;2.90;99.90
74513;DHT22;62992;52.052;8.550;2023-02-26T17:19:31;2.90;99.90
74513;DHT22;62992;52.052;8.550;2023-02-26T17:22:22;2.80;99.90
74513;DHT22;62992;52.052;8.550;2023-02-26T17:25:13;2.80;99.90
74513;DHT22;62992;52.052;8.550;2023-02-26T17:27:57;2.80;99.90
74513;DHT22;62992;52.052;8.550;2023-02-26T17:30:42;2.80;99.90
74513;DHT22;62992;52.052;8.550;2023-02-26T17:33:26;2.80;99.90
74513;DHT22;62992;52.052;8.550;2023-02-26T17:36:15;2.80;99.90
74513;DHT22;62992;52.052;8.550;2023-02-26T17:39:02;2.70;99.90
74513;DHT22;62992;52.052;8.550;2023-02-26T17:41:46;2.70;99.90
74513;DHT22;62992;52.052;8.550;2023-02-26T17:44:30;2.70;99.90
74513;DHT22;62992;52.052;8.550;2023-02-26T17:47:19;2.60;99.90
74513;DHT22;62992;52.052;8.550;2023-02-26T17:50:40;2.50;99.90
74513;DHT22;62992;52.052;8.550;2023-02-26T17:53:26;2.50;99.90
74513;DHT22;62992;52.052;8.550;2023-02-26T17:56:15;2.50;99.90
74513;DHT22;62992;52.052;8.550;2023-02-26T17:59:00;2.40;99.90
74513;DHT22;62992;52.052;8.550;2023-02-26T18:01:44;2.30;99.90
74513;DHT22;62992;52.052;8.550;2023-02-26T18:04:28;2.30;99.90
74513;DHT22;62992;52.052;8.550;2023-02-26T18:07:14;2.30;99.90
74513;DHT22;62992;52.052;8.550;2023-02-26T18:09:59;2.30;99.90
74513;DHT22;62992;52.052;8.550;2023-02-26T18:12:43;2.30;99.90
74513;DHT22;62992;52.052;8.550;2023-02-26T18:15:27;2.20;99.90
74513;DHT22;62992;52.052;8.550;2023-02-26T18:18:12;2.20;99.90
74513;DHT22;62992;52.052;8.550;2023-02-26T18:20:57;2.20;99.90
74513;DHT22;62992;52.052;8.550;2023-02-26T18:23:41;2.20;99.90
74513;DHT22;62992;52.052;8.550;2023-02-26T18:26:25;2.20;99.90
74513;DHT22;62992;52.052;8.550;2023-02-26T18:29:10;2.10;99.90
74513;DHT22;62992;52.052;8.550;2023-02-26T18:31:54;2.10;99.90
74513;DHT22;62992;52.052;8.550;2023-02-26T18:34:38;2.10;99.90
74513;DHT22;62992;52.052;8.550;2023-02-26T18:37:25;2.10;99.90
74513;DHT22;62992;52.052;8.550;2023-02-26T18:40:14;2.10;99.90
74513;DHT22;62992;52.052;8.550;2023-02-26T18:42:59;2.00;99.90
74513;DHT22;62992;52.052;8.550;2023-02-26T18:45:46;2.00;99.90
74513;DHT22;62992;52.052;8.550;2023-02-26T18:48:30;2.00;99.90
74513;DHT22;62992;52.052;8.550;2023-02-26T18:51:15;2.00;99.90
74513;DHT22;62992;52.052;8.550;2023-02-26T18:53:59;2.00;99.90
74513;DHT22;62992;52.052;8.550;2023-02-26T18:56:43;2.00;99.90
74513;DHT22;62992;52.052;8.550;2023-02-26T18:59:27;1.90;99.90
74513;DHT22;62992;52.052;8.550;2023-02-26T19:02:11;1.90;99.90
74513;DHT22;62992;52.052;8.550;2023-02-26T19:04:56;1.90;99.90
74513;DHT22;62992;52.052;8.550;2023-02-26T19:07:40;1.90;99.90
74513;DHT22;62992;52.052;8.550;2023-02-26T19:10:26;1.90;99.90
74513;DHT22;62992;52.052;8.550;2023-02-26T19:13:12;1.90;99.90
74513;DHT22;62992;52.052;8.550;2023-02-26T19:15:56;1.90;99.90
74513;DHT22;62992;52.052;8.550;2023-02-26T19:18:40;1.90;99.90
74513;DHT22;62992;52.052;8.550;2023-02-26T19:21:24;1.90;99.90
74513;DHT22;62992;52.052;8.550;2023-02-26T19:24:11;1.80;99.90
74513;DHT22;62992;52.052;8.550;2023-02-26T19:26:56;1.80;99.90
74513;DHT22;62992;52.052;8.550;2023-02-26T19:29:40;1.80;99.90
74513;DHT22;62992;52.052;8.550;2023-02-26T19:32:25;1.70;99.90
74513;DHT22;62992;52.052;8.550;2023-02-26T19:35:09;1.60;99.90
74513;DHT22;62992;52.052;8.550;2023-02-26T19:37:53;1.60;99.90
74513;DHT22;62992;52.052;8.550;2023-02-26T19:40:37;1.60;99.90
74513;DHT22;62992;52.052;8.550;2023-02-26T19:43:21;1.50;99.90
74513;DHT22;62992;52.052;8.550;2023-02-26T19:46:06;1.50;99.90
74513;DHT22;62992;52.052;8.550;2023-02-26T19:48:50;1.30;99.90
74513;DHT22;62992;52.052;8.550;2023-02-26T19:51:35;1.30;99.90
74513;DHT22;62992;52.052;8.550;2023-02-26T19:54:20;1.30;99.90
74513;DHT22;62992;52.052;8.550;2023-02-26T19:57:04;1.20;99.90
74513;DHT22;62992;52.052;8.550;2023-02-26T19:59:48;1.10;99.90
74513;DHT22;62992;52.052;8.550;2023-02-26T20:02:33;1.10;99.90
74513;DHT22;62992;52.052;8.550;2023-02-26T20:05:17;1.00;99.90
74513;DHT22;62992;52.052;8.550;2023-02-26T20:08:02;1.00;99.90
74513;DHT22;62992;52.052;8.550;2023-02-26T20:10:51;1.00;99.90
74513;DHT22;62992;52.052;8.550;2023-02-26T20:13:35;0.90;99.90
74513;DHT22;62992;52.052;8.550;2023-02-26T20:16:19;0.90;99.90
74513;DHT22;62992;52.052;8.550;2023-02-26T20:19:03;0.80;99.90
74513;DHT22;62992;52.052;8.550;2023-02-26T20:21:48;0.80;99.90
74513;DHT22;62992;52.052;8.550;2023-02-26T20:24:32;0.80;99.90
74513;DHT22;62992;52.052;8.550;2023-02-26T20:27:17;0.70;99.90
74513;DHT22;62992;52.052;8.550;2023-02-26T20:30:03;0.70;99.90
74513;DHT22;62992;52.052;8.550;2023-02-26T20:32:48;0.70;99.90
74513;DHT22;62992;52.052;8.550;2023-02-26T20:35:32;0.70;99.90
74513;DHT22;62992;52.052;8.550;2023-02-26T20:38:17;0.60;99.90
74513;DHT22;62992;52.052;8.550;2023-02-26T20:41:02;0.50;99.90
74513;DHT22;62992;52.052;8.550;2023-02-26T20:43:46;0.50;99.90
74513;DHT22;62992;52.052;8.550;2023-02-26T20:46:31;0.50;99.90
74513;DHT22;62992;52.052;8.550;2023-02-26T20:49:18;0.50;99.90
74513;DHT22;62992;52.052;8.550;2023-02-26T20:52:02;0.40;99.90
74513;DHT22;62992;52.052;8.550;2023-02-26T20:54:47;0.40;99.90